createdAt,value
2019-01-18T00:01:04.717Z,62.94
2019-01-18T00:03:34.254Z,63.06
2019-01-18T00:06:03.891Z,63.28
2019-01-18T00:08:33.546Z,63.17
2019-01-18T00:11:03.136Z,62.95
2019-01-18T00:13:32.785Z,63.30
2019-01-18T00:16:02.224Z,64.14
2019-01-18T00:18:31.898Z,64.46
2019-01-18T00:21:02.075Z,64.91
2019-01-18T00:23:31.844Z,65.21
2019-01-18T00:26:01.624Z,65.01
2019-01-18T00:28:31.312Z,63.92
2019-01-18T00:31:01.019Z,63.58
2019-01-18T00:33:30.892Z,63.82
2019-01-18T00:36:00.674Z,64.20
2019-01-18T00:38:30.057Z,64.22
2019-01-18T00:40:59.801Z,64.20
2019-01-18T00:43:29.675Z,63.87
2019-01-18T00:45:59.507Z,63.75
2019-01-18T00:48:29.118Z,63.11
2019-01-18T00:50:58.555Z,63.33
2019-01-18T00:53:28.047Z,63.68
2019-01-18T00:55:57.724Z,64.10
2019-01-18T00:58:27.373Z,64.55
2019-01-18T01:00:56.908Z,64.88
2019-01-18T01:03:26.457Z,65.14
2019-01-18T01:05:55.896Z,65.23
2019-01-18T01:08:25.393Z,65.12
2019-01-18T01:10:55.053Z,64.83
2019-01-18T01:13:24.678Z,64.64
2019-01-18T01:15:54.298Z,65.03
2019-01-18T01:18:24.112Z,65.35
2019-01-18T01:20:53.685Z,65.46
2019-01-18T01:23:23.397Z,65.13
2019-01-18T01:25:53.216Z,65.04
2019-01-18T01:28:23.131Z,64.53
2019-01-18T01:30:53.014Z,64.31
2019-01-18T01:33:22.537Z,64.71
2019-01-18T01:35:52.656Z,64.55
2019-01-18T01:38:22.467Z,64.44
2019-01-18T01:40:51.898Z,64.47
2019-01-18T01:43:21.749Z,64.76
2019-01-18T01:45:51.594Z,64.43
2019-01-18T01:48:21.139Z,64.36
2019-01-18T01:50:50.742Z,64.43
2019-01-18T01:53:20.221Z,64.44
2019-01-18T01:55:49.931Z,64.51
2019-01-18T01:58:19.540Z,64.82
2019-01-18T02:00:49.318Z,65.16
2019-01-18T02:03:18.809Z,65.54
2019-01-18T02:05:48.244Z,65.28
2019-01-18T02:08:17.961Z,65.19
2019-01-18T02:10:47.386Z,65.52
2019-01-18T02:13:16.900Z,66.10
2019-01-18T02:15:46.574Z,66.22
2019-01-18T02:18:16.310Z,66.37
2019-01-18T02:20:46.205Z,66.52
2019-01-18T02:23:15.909Z,66.61
2019-01-18T02:25:45.639Z,66.70
2019-01-18T02:28:15.346Z,66.79
2019-01-18T02:30:44.801Z,67.23
2019-01-18T02:33:14.196Z,66.80
2019-01-18T02:35:43.766Z,66.59
2019-01-18T02:38:13.508Z,66.65
2019-01-18T02:40:43.363Z,66.39
2019-01-18T02:43:13.056Z,65.41
2019-01-18T02:45:42.504Z,65.33
2019-01-18T02:48:11.978Z,65.31
2019-01-18T02:50:41.578Z,65.50
2019-01-18T02:53:11.180Z,65.53
2019-01-18T02:55:40.614Z,65.54
2019-01-18T02:58:10.198Z,65.92
2019-01-18T03:00:39.732Z,65.95
2019-01-18T03:03:09.438Z,66.06
2019-01-18T03:05:39.224Z,66.14
2019-01-18T03:08:08.603Z,66.10
2019-01-18T03:10:38.061Z,66.58
2019-01-18T03:13:07.780Z,66.60
2019-01-18T03:15:37.539Z,66.54
2019-01-18T03:18:07.251Z,66.74
2019-01-18T03:20:37.136Z,66.70
2019-01-18T03:23:06.624Z,66.98
2019-01-18T03:25:36.278Z,67.11
2019-01-18T03:28:05.884Z,67.30
2019-01-18T03:30:35.624Z,67.74
2019-01-18T03:33:05.429Z,68.15
2019-01-18T03:35:35.005Z,68.14
2019-01-18T03:38:04.859Z,68.20
2019-01-18T03:40:34.544Z,68.37
2019-01-18T03:43:04.245Z,68.58
2019-01-18T03:45:34.017Z,68.55
2019-01-18T03:48:03.709Z,68.62
2019-01-18T03:50:33.382Z,68.60
2019-01-18T03:53:02.970Z,68.24
2019-01-18T03:55:32.392Z,68.03
2019-01-18T03:58:01.938Z,67.58
2019-01-18T04:00:31.592Z,67.64
2019-01-18T04:03:01.067Z,67.16
2019-01-18T04:05:30.868Z,66.79
2019-01-18T04:08:00.449Z,66.97
2019-01-18T04:10:30.242Z,67.37
2019-01-18T04:12:59.630Z,66.73
2019-01-18T04:15:29.060Z,66.47
2019-01-18T04:17:58.846Z,66.22
2019-01-18T04:20:28.398Z,66.34
2019-01-18T04:22:57.950Z,66.17
2019-01-18T04:25:30.146Z,66.00
2019-01-18T04:27:59.794Z,65.84
2019-01-18T04:30:33.487Z,65.92
2019-01-18T04:33:01.094Z,65.86
2019-01-18T04:35:30.881Z,65.95
2019-01-18T04:38:00.735Z,65.79
2019-01-18T04:40:30.631Z,65.63
2019-01-18T04:43:00.332Z,65.59
2019-01-18T04:45:30.223Z,65.20
2019-01-18T04:48:00.059Z,64.94
2019-01-18T04:50:30.383Z,64.22
2019-01-18T04:52:59.996Z,63.99
2019-01-18T04:55:29.442Z,64.36
2019-01-18T04:57:58.983Z,64.73
2019-01-18T05:00:30.369Z,64.28
2019-01-18T05:03:00.100Z,64.94
2019-01-18T05:05:29.680Z,65.18
2019-01-18T05:07:59.250Z,65.50
2019-01-18T05:10:29.841Z,65.83
2019-01-18T05:13:00.060Z,66.07
2019-01-18T05:15:33.720Z,66.71
2019-01-18T05:18:03.335Z,67.00
2019-01-18T05:20:32.872Z,67.00
2019-01-18T05:23:02.361Z,66.77
2019-01-18T05:25:31.918Z,66.21
2019-01-18T05:28:01.549Z,65.64
2019-01-18T05:30:31.635Z,65.67
2019-01-18T05:33:01.213Z,65.58
2019-01-18T05:35:30.985Z,66.01
2019-01-18T05:38:00.805Z,65.91
2019-01-18T05:40:30.601Z,65.51
2019-01-18T05:43:00.304Z,65.47
2019-01-18T05:45:30.054Z,65.27
2019-01-18T05:47:59.679Z,65.42
2019-01-18T05:50:30.607Z,65.68
2019-01-18T05:53:04.013Z,66.06
2019-01-18T05:55:33.676Z,66.21
2019-01-18T05:58:03.644Z,66.20
2019-01-18T06:00:55.194Z,66.27
2019-01-18T06:03:22.155Z,66.27
2019-01-18T06:05:51.850Z,66.40
2019-01-18T06:08:21.519Z,66.57
2019-01-18T06:10:51.424Z,66.44
2019-01-18T06:13:21.082Z,66.56
2019-01-18T06:15:50.631Z,66.92
2019-01-18T06:18:20.185Z,66.81
2019-01-18T06:20:49.832Z,66.55
2019-01-18T06:23:19.458Z,67.08
2019-01-18T06:25:49.130Z,67.18
2019-01-18T06:28:18.843Z,66.91
2019-01-18T06:30:48.291Z,66.28
2019-01-18T06:33:17.768Z,66.34
2019-01-18T06:35:47.558Z,66.69
2019-01-18T06:38:17.268Z,66.91
2019-01-18T06:40:48.319Z,67.06
2019-01-18T06:43:17.950Z,66.87
2019-01-18T06:45:47.392Z,65.77
2019-01-18T06:48:20.952Z,65.55
2019-01-18T06:50:50.412Z,64.44
2019-01-18T06:53:19.903Z,63.34
2019-01-18T07:14:52.576Z,59.55
2019-01-18T07:17:22.339Z,58.64
2019-01-18T07:19:51.872Z,58.32
2019-01-18T07:22:21.623Z,58.24
2019-01-18T07:24:51.316Z,58.62
2019-01-18T07:27:20.795Z,59.14
2019-01-18T07:29:50.695Z,59.25
2019-01-18T07:32:20.088Z,58.99
2019-01-18T07:34:49.818Z,58.75
2019-01-18T07:37:19.321Z,58.43
2019-01-18T07:57:31.599Z,55.04
2019-01-18T08:00:01.102Z,55.25
2019-01-18T08:02:33.413Z,56.05
2019-01-18T08:05:02.805Z,56.02
2019-01-18T08:07:32.217Z,55.91
2019-01-18T08:10:01.706Z,56.21
2019-01-18T08:12:31.200Z,56.57
2019-01-18T08:15:00.603Z,55.89
2019-01-18T08:17:30.039Z,56.00
2019-01-18T08:19:59.545Z,54.75
2019-01-18T08:22:29.039Z,55.09
2019-01-18T08:24:58.422Z,54.76
2019-01-18T08:27:27.826Z,54.93
2019-01-18T08:29:57.329Z,54.15
2019-01-18T08:32:26.803Z,53.37
2019-01-18T08:34:56.220Z,53.36
2019-01-18T08:37:25.703Z,53.31
2019-01-18T08:39:55.161Z,52.96
2019-01-18T08:42:24.564Z,49.34
2019-01-18T08:44:54.058Z,49.69
2019-01-18T08:47:23.544Z,50.01
2019-01-18T08:49:52.956Z,50.03
2019-01-18T08:52:22.367Z,49.34
2019-01-18T08:54:51.866Z,47.66
2019-01-18T08:57:21.506Z,44.81
2019-01-18T08:59:50.991Z,44.40
2019-01-18T09:02:21.794Z,43.12
2019-01-18T09:04:51.396Z,40.24
2019-01-18T09:07:20.889Z,39.81
2019-01-18T09:09:50.296Z,39.17
2019-01-18T09:12:19.702Z,37.08
2019-01-18T09:14:49.183Z,35.67
2019-01-18T09:17:20.572Z,33.26
2019-01-18T09:19:50.042Z,32.03
2019-01-18T09:22:19.516Z,31.10
2019-01-18T09:24:48.943Z,31.04
2019-01-18T09:27:18.352Z,29.63
2019-01-18T09:29:47.865Z,29.06
2019-01-18T09:32:17.355Z,29.39
2019-01-18T09:34:46.759Z,29.43
2019-01-18T09:37:16.269Z,29.85
2019-01-18T09:39:45.768Z,30.18
2019-01-18T09:42:15.285Z,30.78
2019-01-18T09:44:44.694Z,31.44
2019-01-18T09:47:14.095Z,31.41
2019-01-18T09:49:43.691Z,31.33
2019-01-18T09:52:13.199Z,30.86
2019-01-18T09:54:44.948Z,30.29
2019-01-18T09:57:15.655Z,29.43
2019-01-18T09:59:45.069Z,28.82
2019-01-18T10:02:14.469Z,27.56
2019-01-18T10:04:43.966Z,28.16
2019-01-18T10:07:13.451Z,27.17
2019-01-18T10:09:42.855Z,26.79
2019-01-18T10:12:12.384Z,26.72
2019-01-18T10:14:41.886Z,26.52
2019-01-18T10:17:11.378Z,25.73
2019-01-18T10:19:40.778Z,26.35
2019-01-18T10:22:10.193Z,25.95
2019-01-18T10:24:39.702Z,26.03
2019-01-18T10:27:09.192Z,26.25
2019-01-18T10:29:38.609Z,25.89
2019-01-18T10:32:09.794Z,25.72
2019-01-18T10:34:39.309Z,25.85
2019-01-18T10:37:08.795Z,25.35
2019-01-18T10:39:38.210Z,24.75
2019-01-18T10:42:07.656Z,24.34
2019-01-18T10:44:37.210Z,23.64
2019-01-18T10:47:06.698Z,23.16
2019-01-18T10:49:36.104Z,23.11
2019-01-18T10:52:05.512Z,23.88
2019-01-18T10:54:35.006Z,24.12
2019-01-18T10:57:04.658Z,24.35
2019-01-18T10:59:34.067Z,24.45
2019-01-18T11:02:07.175Z,23.98
2019-01-18T11:04:34.803Z,24.05
2019-01-18T11:07:04.446Z,24.39
2019-01-18T11:09:33.849Z,24.49
2019-01-18T11:12:03.255Z,24.64
2019-01-18T11:14:32.798Z,25.48
2019-01-18T11:17:02.216Z,25.42
2019-01-18T11:19:31.724Z,25.21
2019-01-18T11:22:01.381Z,25.67
2019-01-18T11:24:30.779Z,25.61
2019-01-18T11:27:00.195Z,25.46
2019-01-18T11:29:29.683Z,24.65
2019-01-18T11:31:59.168Z,23.62
2019-01-18T11:34:28.551Z,22.61
2019-01-18T11:36:58.272Z,21.80
2019-01-18T11:39:27.867Z,21.41
2019-01-18T11:41:57.334Z,21.22
2019-01-18T11:44:26.755Z,21.35
2019-01-18T11:46:56.173Z,21.68
2019-01-18T11:49:25.662Z,21.99
2019-01-18T11:51:55.198Z,21.40
2019-01-18T11:54:24.601Z,22.10
2019-01-18T11:56:54.087Z,23.77
2019-01-18T11:59:23.495Z,24.39
2019-01-18T12:01:52.967Z,24.67
2019-01-18T12:04:22.461Z,24.90
2019-01-18T12:06:51.990Z,25.38
2019-01-18T12:09:21.393Z,24.07
2019-01-18T12:11:50.812Z,23.57
2019-01-18T12:14:20.292Z,23.39
2019-01-18T12:16:49.801Z,23.83
2019-01-18T12:19:19.200Z,23.47
2019-01-18T12:21:48.616Z,22.68
2019-01-18T12:24:18.112Z,23.11
2019-01-18T12:26:47.608Z,22.54
2019-01-18T12:29:17.013Z,22.29
2019-01-18T12:31:46.501Z,22.44
2019-01-18T12:34:15.987Z,22.16
2019-01-18T12:36:45.383Z,21.59
2019-01-18T12:39:14.883Z,21.60
2019-01-18T12:41:44.376Z,21.56
2019-01-18T12:44:13.787Z,21.81
2019-01-18T12:46:43.203Z,22.00
2019-01-18T12:49:12.694Z,21.54
2019-01-18T12:51:42.202Z,21.61
2019-01-18T12:54:11.607Z,21.36
2019-01-18T12:56:41.015Z,21.93
2019-01-18T12:59:10.513Z,21.78
2019-01-18T13:01:40.008Z,21.87
2019-01-18T13:04:09.407Z,22.11
2019-01-18T13:06:41.120Z,22.41
2019-01-18T13:09:10.617Z,22.51
2019-01-18T13:11:40.114Z,22.12
2019-01-18T13:14:09.512Z,22.69
2019-01-18T13:16:46.746Z,22.40
2019-01-18T13:19:21.654Z,22.87
2019-01-18T13:21:51.071Z,23.17
2019-01-18T13:24:20.646Z,23.97
2019-01-18T13:26:51.315Z,24.80
2019-01-18T13:29:20.700Z,25.46
2019-01-18T13:31:50.163Z,26.16
2019-01-18T13:34:19.816Z,26.88
2019-01-18T13:36:49.289Z,27.64
2019-01-18T13:39:18.710Z,28.68
2019-01-18T13:41:48.123Z,29.88
2019-01-18T13:44:17.624Z,30.78
2019-01-18T13:46:47.102Z,31.94
2019-01-18T13:49:16.511Z,32.50
2019-01-18T13:51:46.299Z,32.76
2019-01-18T13:54:15.997Z,33.81
2019-01-18T13:56:45.419Z,34.29
2019-01-18T13:59:14.921Z,34.90
2019-01-18T14:01:44.525Z,35.93
2019-01-18T14:04:13.907Z,35.83
2019-01-18T14:06:43.348Z,36.81
2019-01-18T14:09:12.846Z,37.43
2019-01-18T14:11:44.203Z,37.55
2019-01-18T14:14:13.598Z,38.02
2019-01-18T14:16:43.007Z,38.72
2019-01-18T14:19:12.508Z,39.18
2019-01-18T14:21:41.994Z,40.15
2019-01-18T14:24:11.394Z,40.23
2019-01-18T14:26:40.814Z,40.98
2019-01-18T14:29:10.297Z,41.53
2019-01-18T14:31:39.796Z,42.26
2019-01-18T14:34:09.208Z,42.63
2019-01-18T14:36:39.073Z,44.06
2019-01-18T14:39:11.601Z,43.60
2019-01-18T14:41:42.220Z,43.53
2019-01-18T14:44:12.795Z,43.49
2019-01-18T14:46:42.289Z,42.62
2019-01-18T14:49:11.691Z,42.42
2019-01-18T14:51:43.883Z,42.30
2019-01-18T14:54:13.385Z,42.82
2019-01-18T14:56:42.914Z,43.05
2019-01-18T14:59:12.320Z,43.45
2019-01-18T15:01:43.834Z,43.53
2019-01-18T15:04:13.401Z,44.33
2019-01-18T15:06:42.892Z,44.50
2019-01-18T15:09:12.302Z,43.28
2019-01-18T15:11:41.721Z,44.18
2019-01-18T15:14:11.201Z,44.42
2019-01-18T15:16:40.626Z,43.92
2019-01-18T15:19:10.169Z,43.99
2019-01-18T15:21:39.652Z,43.99
2019-01-18T15:24:09.053Z,44.42
2019-01-18T15:26:38.459Z,45.03
2019-01-18T15:29:07.961Z,44.04
2019-01-18T15:31:37.443Z,44.09
2019-01-18T15:34:06.854Z,44.12
2019-01-18T15:36:36.257Z,45.14
2019-01-18T15:39:10.441Z,44.41
2019-01-18T15:41:40.113Z,44.05
2019-01-18T15:44:11.582Z,44.79
2019-01-18T15:46:41.004Z,45.19
2019-01-18T15:49:10.788Z,44.61
2019-01-18T15:51:40.282Z,44.56
2019-01-18T15:54:10.091Z,45.03
2019-01-18T15:56:39.597Z,45.22
2019-01-18T15:59:10.602Z,45.73
2019-01-18T16:01:40.118Z,45.57
2019-01-18T16:04:09.536Z,44.87
2019-01-18T16:06:39.358Z,44.58
2019-01-18T16:09:09.276Z,44.66
2019-01-18T16:11:38.760Z,44.99
2019-01-18T16:14:08.188Z,44.55
2019-01-18T16:16:50.363Z,44.98
2019-01-18T16:19:19.868Z,45.85
2019-01-18T16:21:49.365Z,46.33
2019-01-18T16:24:19.722Z,45.99
2019-01-18T16:26:49.127Z,47.10
2019-01-18T16:29:20.781Z,48.07
2019-01-18T16:31:50.654Z,47.26
2019-01-18T16:34:20.078Z,48.08
2019-01-18T16:36:49.564Z,48.77
2019-01-18T16:39:19.046Z,49.35
2019-01-18T16:41:48.491Z,49.68
2019-01-18T16:44:17.996Z,49.95
2019-01-18T16:46:47.478Z,50.59
2019-01-18T16:49:16.875Z,51.26
2019-01-18T16:51:46.280Z,51.04
2019-01-18T16:54:15.806Z,51.14
2019-01-18T16:56:45.284Z,49.75
2019-01-18T16:59:14.711Z,49.50
2019-01-18T17:01:44.129Z,49.57
2019-01-18T17:04:13.641Z,50.30
2019-01-18T17:06:43.132Z,50.93
2019-01-18T17:09:12.523Z,51.67
2019-01-18T17:11:44.466Z,51.64
2019-01-18T17:14:13.966Z,50.28
2019-01-18T17:16:45.072Z,50.02
2019-01-18T17:19:14.656Z,49.52
2019-01-18T17:21:44.243Z,49.08
2019-01-18T17:24:13.668Z,48.88
2019-01-18T17:26:43.069Z,48.85
2019-01-18T17:29:12.565Z,48.68
2019-01-18T17:31:42.062Z,49.61
2019-01-18T17:34:11.473Z,49.30
2019-01-18T17:37:00.231Z,49.90
2019-01-18T17:40:29.014Z,50.47
2019-01-18T17:43:25.553Z,51.00
2019-01-18T17:46:35.295Z,51.87
2019-01-18T17:49:51.659Z,52.43
2019-01-18T17:52:52.060Z,52.57
2019-01-18T17:56:03.136Z,53.02
2019-01-18T17:59:10.030Z,53.21
2019-01-18T18:02:00.443Z,53.18
2019-01-18T18:04:57.940Z,53.50
2019-01-18T18:08:22.363Z,54.30
2019-01-18T18:11:26.100Z,53.92
2019-01-18T18:14:37.206Z,54.39
2019-01-18T18:18:05.528Z,54.17
2019-01-18T18:21:18.744Z,54.27
2019-01-18T18:24:21.939Z,53.74
2019-01-18T18:27:40.420Z,53.95
2019-01-18T18:30:24.908Z,53.37
2019-01-18T18:33:50.699Z,53.36
2019-01-18T18:37:09.931Z,53.63
2019-01-18T18:39:57.086Z,54.23
2019-01-18T18:43:19.139Z,54.42
2019-01-18T18:46:32.727Z,54.31
2019-01-18T18:49:12.368Z,53.97
2019-01-18T18:52:18.446Z,53.83
2019-01-18T18:55:33.841Z,53.77
2019-01-18T18:59:08.450Z,53.72
2019-01-18T19:02:03.302Z,53.73
2019-01-18T19:05:13.545Z,53.75
2019-01-18T19:08:20.043Z,53.79
2019-01-18T19:11:31.431Z,53.59
2019-01-18T19:14:30.965Z,54.05
2019-01-18T19:17:31.714Z,54.73
2019-01-18T19:20:47.011Z,54.80
2019-01-18T19:23:53.160Z,55.32
2019-01-18T19:27:14.395Z,55.96
2019-01-18T19:30:36.425Z,56.67
2019-01-18T19:33:52.169Z,57.72
2019-01-18T19:36:59.182Z,57.68
2019-01-18T19:39:45.725Z,57.85
2019-01-18T19:42:42.577Z,58.53
2019-01-18T19:45:58.941Z,58.39
2019-01-18T19:49:09.090Z,58.56
2019-01-18T19:51:52.124Z,58.30
2019-01-18T19:54:45.089Z,58.60
2019-01-18T19:57:54.239Z,58.58
2019-01-18T20:00:46.187Z,58.79
2019-01-18T20:04:21.002Z,59.22
2019-01-18T20:07:19.622Z,59.64
2019-01-18T20:10:18.380Z,60.09
2019-01-18T20:13:29.262Z,60.29
2019-01-18T20:16:33.748Z,60.50
2019-01-18T20:19:45.691Z,60.69
2019-01-18T20:22:26.396Z,61.00
2019-01-18T20:25:39.172Z,61.02
2019-01-18T20:28:40.649Z,61.28
2019-01-18T20:31:21.915Z,61.60
2019-01-18T20:34:18.513Z,61.74
2019-01-18T20:37:37.357Z,62.00
2019-01-18T20:41:02.478Z,61.83
2019-01-18T20:43:53.750Z,62.07
2019-01-18T20:47:05.461Z,62.23
2019-01-18T20:50:21.647Z,62.20
2019-01-18T20:53:44.086Z,62.24
2019-01-18T20:56:33.125Z,62.06
2019-01-18T20:59:55.173Z,62.44
2019-01-18T21:03:05.002Z,62.54
2019-01-18T21:06:14.312Z,62.59
2019-01-18T21:09:42.641Z,62.42
2019-01-18T21:12:48.880Z,62.35
2019-01-18T21:15:34.930Z,62.28
2019-01-18T21:18:24.788Z,62.59
2019-01-18T21:21:27.125Z,62.28
2019-01-18T21:24:52.991Z,62.11
2019-01-18T21:27:45.738Z,62.18
2019-01-18T21:30:31.789Z,62.31
2019-01-18T21:33:34.012Z,62.76
2019-01-18T21:36:40.239Z,62.48
2019-01-18T21:40:02.367Z,62.26
2019-01-18T21:43:10.293Z,62.49
2019-01-18T21:46:03.778Z,62.94
2019-01-18T21:49:14.844Z,62.91
2019-01-18T21:52:24.452Z,62.71
2019-01-18T21:55:38.915Z,63.06
2019-01-18T21:58:27.191Z,63.15
2019-01-18T22:01:35.589Z,63.02
2019-01-18T22:04:10.734Z,62.77
2019-01-18T22:07:22.978Z,62.67
2019-01-18T22:10:51.355Z,62.61
2019-01-18T22:13:39.896Z,62.68
2019-01-18T22:16:41.533Z,62.78
2019-01-18T22:19:32.273Z,63.02
2019-01-18T22:22:26.516Z,63.08
2019-01-18T22:25:38.968Z,63.19
2019-01-18T22:28:29.552Z,63.01
2019-01-18T22:31:47.166Z,62.92
2019-01-18T22:34:47.961Z,63.72
2019-01-18T22:38:11.487Z,63.41
2019-01-18T22:41:08.113Z,63.89
2019-01-18T22:43:58.677Z,64.14
2019-01-18T22:47:14.741Z,64.24
2019-01-18T22:50:31.010Z,64.14
2019-01-18T22:53:43.074Z,63.94
2019-01-18T22:56:48.141Z,63.38
2019-01-18T23:00:35.037Z,62.70
2019-01-18T23:03:29.422Z,62.79
2019-01-18T23:06:54.811Z,62.85
2019-01-18T23:10:20.572Z,62.69
2019-01-18T23:13:35.249Z,62.40
2019-01-18T23:16:46.954Z,62.61
2019-01-18T23:19:47.501Z,63.08
2019-01-18T23:22:40.099Z,63.45
2019-01-18T23:25:17.253Z,63.99
2019-01-18T23:28:29.571Z,64.23
2019-01-18T23:31:24.735Z,63.67
2019-01-18T23:34:27.312Z,63.83
2019-01-18T23:37:46.461Z,63.65
2019-01-18T23:41:20.827Z,63.87
2019-01-18T23:44:21.447Z,64.08
2019-01-18T23:47:12.128Z,64.19
2019-01-18T23:49:54.944Z,64.44
2019-01-18T23:52:36.517Z,64.18
2019-01-18T23:55:58.919Z,63.50
2019-01-18T23:59:11.045Z,63.92
